Terminal Aerodrome Forecast
Issued by NWS

Home | Current Version | Previous Version | Text Only | Print | Product List | Glossary On
Versions: 1 2 3 4 5 6 7 8 9 10 11 12
000
FTUS45 KABQ 010540
TAFFMN
TAF
KFMN 010540Z 0106/0206 27007KT P6SM BKN120
     FM010800 VRB05KT P6SM SCT120 BKN180
     FM012200 25009KT P6SM VCSH SCT090 BKN120
     FM020400 VRB06KT P6SM SCT100 BKN140=

USA.gov is the U.S. government's official web portal to all federal, state and local government web resources and services.